Terminal Aerodrome Forecast
Issued by NWS Pueblo, CO

Home | Current Version | Previous Version | Text Only | Print | Product List | Glossary On
Versions: 1 2 3 4 5 6 7 8 9 10 11 12 13 14 15 16 17 18 19 20 21 22 23 24 25 26 27 28 29 30 31 32 33 34 35 36 37 38 39 40
000
FTUS45 KPUB 041313 AAA
TAFALS
TAF AMD
KALS 041313Z 0413/0512 VRB03KT 5SM BR SCT002
      TEMPO 0413/0414 1/2SM FG VV002
     FM041500 VRB05KT P6SM SCT100 BKN150
     FM041700 20007KT P6SM BKN100
     FM042000 22012KT P6SM VCTS SCT070CB BKN100
     FM050200 19010KT P6SM VCSH BKN070
     FM050800 16007KT P6SM VCSH BKN040=

USA.gov is the U.S. government's official web portal to all federal, state and local government web resources and services.